sensor_id;sensor_type;location;lat;lon;timestamp;P1;durP1;ratioP1;P2;durP2;ratioP2
66587;SDS011;53446;50.076;8.198;2023-04-06T00:01:41;28.17;;;15.83;;
66587;SDS011;53446;50.076;8.198;2023-04-06T00:03:41;12.07;;;5.75;;
66587;SDS011;53446;50.076;8.198;2023-04-06T00:05:41;9.48;;;3.90;;
66587;SDS011;53446;50.076;8.198;2023-04-06T00:07:42;9.30;;;3.87;;
66587;SDS011;53446;50.076;8.198;2023-04-06T00:09:42;6.40;;;3.30;;
66587;SDS011;53446;50.076;8.198;2023-04-06T00:11:42;6.57;;;3.10;;
66587;SDS011;53446;50.076;8.198;2023-04-06T00:13:43;9.27;;;4.57;;
66587;SDS011;53446;50.076;8.198;2023-04-06T00:15:43;8.43;;;3.87;;
66587;SDS011;53446;50.076;8.198;2023-04-06T00:17:43;9.80;;;5.63;;
66587;SDS011;53446;50.076;8.198;2023-04-06T00:19:43;10.07;;;5.35;;
66587;SDS011;53446;50.076;8.198;2023-04-06T00:21:44;8.70;;;3.80;;
66587;SDS011;53446;50.076;8.198;2023-04-06T00:23:44;7.27;;;3.67;;
66587;SDS011;53446;50.076;8.198;2023-04-06T00:25:45;9.23;;;3.67;;
66587;SDS011;53446;50.076;8.198;2023-04-06T00:27:45;6.53;;;3.00;;
66587;SDS011;53446;50.076;8.198;2023-04-06T00:29:45;8.33;;;4.90;;
66587;SDS011;53446;50.076;8.198;2023-04-06T00:31:46;8.25;;;4.07;;
66587;SDS011;53446;50.076;8.198;2023-04-06T00:33:47;7.45;;;4.18;;
66587;SDS011;53446;50.076;8.198;2023-04-06T00:35:48;7.45;;;3.28;;
66587;SDS011;53446;50.076;8.198;2023-04-06T00:37:48;7.82;;;3.55;;
66587;SDS011;53446;50.076;8.198;2023-04-06T00:39:49;6.00;;;3.30;;
66587;SDS011;53446;50.076;8.198;2023-04-06T00:41:51;6.40;;;3.13;;
66587;SDS011;53446;50.076;8.198;2023-04-06T00:43:53;6.68;;;3.15;;
66587;SDS011;53446;50.076;8.198;2023-04-06T00:45:54;9.15;;;3.38;;
66587;SDS011;53446;50.076;8.198;2023-04-06T00:47:55;6.38;;;3.10;;
66587;SDS011;53446;50.076;8.198;2023-04-06T00:49:56;11.37;;;4.63;;
66587;SDS011;53446;50.076;8.198;2023-04-06T00:51:56;7.68;;;3.42;;
66587;SDS011;53446;50.076;8.198;2023-04-06T00:53:56;6.90;;;3.42;;
66587;SDS011;53446;50.076;8.198;2023-04-06T00:55:57;7.13;;;3.27;;
66587;SDS011;53446;50.076;8.198;2023-04-06T00:57:58;7.53;;;3.43;;
66587;SDS011;53446;50.076;8.198;2023-04-06T01:00:00;7.47;;;3.33;;
66587;SDS011;53446;50.076;8.198;2023-04-06T01:02:00;6.97;;;3.53;;
66587;SDS011;53446;50.076;8.198;2023-04-06T01:04:00;7.70;;;2.80;;
66587;SDS011;53446;50.076;8.198;2023-04-06T01:06:02;8.00;;;3.03;;
66587;SDS011;53446;50.076;8.198;2023-04-06T01:08:03;6.40;;;3.40;;
66587;SDS011;53446;50.076;8.198;2023-04-06T01:10:03;6.90;;;3.10;;
66587;SDS011;53446;50.076;8.198;2023-04-06T01:12:04;7.93;;;3.42;;
66587;SDS011;53446;50.076;8.198;2023-04-06T01:14:04;7.07;;;3.20;;
66587;SDS011;53446;50.076;8.198;2023-04-06T01:16:05;6.93;;;3.58;;
66587;SDS011;53446;50.076;8.198;2023-04-06T01:18:07;7.53;;;3.37;;
66587;SDS011;53446;50.076;8.198;2023-04-06T01:20:10;11.82;;;5.50;;
66587;SDS011;53446;50.076;8.198;2023-04-06T01:22:14;8.00;;;3.63;;
66587;SDS011;53446;50.076;8.198;2023-04-06T01:24:15;7.53;;;3.40;;
66587;SDS011;53446;50.076;8.198;2023-04-06T01:26:16;8.87;;;3.17;;
66587;SDS011;53446;50.076;8.198;2023-04-06T01:28:16;11.17;;;3.57;;
66587;SDS011;53446;50.076;8.198;2023-04-06T01:30:16;9.27;;;3.80;;
66587;SDS011;53446;50.076;8.198;2023-04-06T01:32:17;8.75;;;3.70;;
66587;SDS011;53446;50.076;8.198;2023-04-06T01:34:17;8.27;;;3.50;;
66587;SDS011;53446;50.076;8.198;2023-04-06T01:36:18;9.03;;;3.43;;
66587;SDS011;53446;50.076;8.198;2023-04-06T01:38:18;7.22;;;3.25;;
66587;SDS011;53446;50.076;8.198;2023-04-06T01:40:19;10.53;;;3.43;;
66587;SDS011;53446;50.076;8.198;2023-04-06T01:42:20;6.25;;;2.95;;
66587;SDS011;53446;50.076;8.198;2023-04-06T01:44:20;7.23;;;3.50;;
66587;SDS011;53446;50.076;8.198;2023-04-06T01:46:21;7.43;;;3.50;;
66587;SDS011;53446;50.076;8.198;2023-04-06T01:48:21;7.17;;;3.23;;
66587;SDS011;53446;50.076;8.198;2023-04-06T01:50:21;8.98;;;3.28;;
66587;SDS011;53446;50.076;8.198;2023-04-06T01:52:22;9.10;;;3.33;;
66587;SDS011;53446;50.076;8.198;2023-04-06T01:54:22;11.20;;;3.77;;
66587;SDS011;53446;50.076;8.198;2023-04-06T01:56:22;8.60;;;2.90;;
66587;SDS011;53446;50.076;8.198;2023-04-06T01:58:22;8.77;;;3.40;;
66587;SDS011;53446;50.076;8.198;2023-04-06T02:00:23;7.00;;;2.80;;
66587;SDS011;53446;50.076;8.198;2023-04-06T02:02:23;7.37;;;2.90;;
66587;SDS011;53446;50.076;8.198;2023-04-06T02:04:23;5.50;;;2.47;;
66587;SDS011;53446;50.076;8.198;2023-04-06T02:06:24;7.15;;;2.78;;
66587;SDS011;53446;50.076;8.198;2023-04-06T02:08:25;7.33;;;3.50;;
66587;SDS011;53446;50.076;8.198;2023-04-06T02:10:25;6.68;;;2.95;;
66587;SDS011;53446;50.076;8.198;2023-04-06T02:12:26;6.80;;;3.10;;
66587;SDS011;53446;50.076;8.198;2023-04-06T02:14:26;5.60;;;2.70;;
66587;SDS011;53446;50.076;8.198;2023-04-06T02:16:26;8.20;;;2.87;;
66587;SDS011;53446;50.076;8.198;2023-04-06T02:18:26;6.93;;;3.47;;
66587;SDS011;53446;50.076;8.198;2023-04-06T02:20:28;7.05;;;3.05;;
66587;SDS011;53446;50.076;8.198;2023-04-06T02:22:28;6.90;;;3.23;;
66587;SDS011;53446;50.076;8.198;2023-04-06T02:24:28;6.77;;;3.10;;
66587;SDS011;53446;50.076;8.198;2023-04-06T02:26:28;8.70;;;3.57;;
66587;SDS011;53446;50.076;8.198;2023-04-06T02:28:29;7.97;;;3.13;;
66587;SDS011;53446;50.076;8.198;2023-04-06T02:30:29;11.30;;;3.63;;
66587;SDS011;53446;50.076;8.198;2023-04-06T02:32:31;7.53;;;3.42;;
66587;SDS011;53446;50.076;8.198;2023-04-06T02:34:31;7.17;;;2.77;;
66587;SDS011;53446;50.076;8.198;2023-04-06T02:36:32;8.30;;;3.65;;
66587;SDS011;53446;50.076;8.198;2023-04-06T02:38:32;6.53;;;3.37;;
66587;SDS011;53446;50.076;8.198;2023-04-06T02:40:32;12.47;;;4.73;;
66587;SDS011;53446;50.076;8.198;2023-04-06T02:42:33;28.13;;;10.80;;
66587;SDS011;53446;50.076;8.198;2023-04-06T02:44:34;17.67;;;6.63;;
66587;SDS011;53446;50.076;8.198;2023-04-06T02:46:35;19.67;;;6.90;;
66587;SDS011;53446;50.076;8.198;2023-04-06T02:48:35;12.90;;;5.33;;
66587;SDS011;53446;50.076;8.198;2023-04-06T02:50:37;10.80;;;4.03;;
66587;SDS011;53446;50.076;8.198;2023-04-06T02:52:37;9.23;;;3.30;;
66587;SDS011;53446;50.076;8.198;2023-04-06T02:54:37;8.60;;;3.37;;
66587;SDS011;53446;50.076;8.198;2023-04-06T02:56:38;9.17;;;3.63;;
66587;SDS011;53446;50.076;8.198;2023-04-06T02:58:38;7.68;;;3.63;;
66587;SDS011;53446;50.076;8.198;2023-04-06T03:00:38;7.30;;;3.30;;
66587;SDS011;53446;50.076;8.198;2023-04-06T03:02:39;9.07;;;4.20;;
66587;SDS011;53446;50.076;8.198;2023-04-06T03:04:39;8.10;;;3.70;;
66587;SDS011;53446;50.076;8.198;2023-04-06T03:06:40;6.57;;;3.00;;
66587;SDS011;53446;50.076;8.198;2023-04-06T03:08:40;6.78;;;3.17;;
66587;SDS011;53446;50.076;8.198;2023-04-06T03:10:40;5.95;;;2.70;;
66587;SDS011;53446;50.076;8.198;2023-04-06T03:12:41;9.27;;;3.70;;
66587;SDS011;53446;50.076;8.198;2023-04-06T03:14:41;7.60;;;3.73;;
66587;SDS011;53446;50.076;8.198;2023-04-06T03:16:41;7.37;;;3.30;;
66587;SDS011;53446;50.076;8.198;2023-04-06T03:18:42;8.83;;;3.73;;
66587;SDS011;53446;50.076;8.198;2023-04-06T03:20:44;7.18;;;3.30;;
66587;SDS011;53446;50.076;8.198;2023-04-06T03:22:44;8.13;;;3.17;;
66587;SDS011;53446;50.076;8.198;2023-04-06T03:24:45;8.53;;;3.83;;
66587;SDS011;53446;50.076;8.198;2023-04-06T03:26:45;8.32;;;3.67;;
66587;SDS011;53446;50.076;8.198;2023-04-06T03:28:45;8.70;;;3.73;;
66587;SDS011;53446;50.076;8.198;2023-04-06T03:30:46;7.40;;;3.13;;
66587;SDS011;53446;50.076;8.198;2023-04-06T03:32:46;6.30;;;2.77;;
66587;SDS011;53446;50.076;8.198;2023-04-06T03:34:46;6.97;;;3.03;;
66587;SDS011;53446;50.076;8.198;2023-04-06T03:36:47;8.57;;;3.67;;
66587;SDS011;53446;50.076;8.198;2023-04-06T03:38:47;6.87;;;3.00;;
66587;SDS011;53446;50.076;8.198;2023-04-06T03:40:47;7.57;;;3.47;;
66587;SDS011;53446;50.076;8.198;2023-04-06T03:42:47;7.50;;;3.05;;
66587;SDS011;53446;50.076;8.198;2023-04-06T03:44:48;6.93;;;3.00;;
66587;SDS011;53446;50.076;8.198;2023-04-06T03:46:48;7.23;;;2.67;;
66587;SDS011;53446;50.076;8.198;2023-04-06T03:48:48;5.83;;;2.70;;
66587;SDS011;53446;50.076;8.198;2023-04-06T03:50:49;8.63;;;3.40;;
66587;SDS011;53446;50.076;8.198;2023-04-06T03:52:49;8.00;;;3.63;;
66587;SDS011;53446;50.076;8.198;2023-04-06T03:54:49;6.63;;;3.13;;
66587;SDS011;53446;50.076;8.198;2023-04-06T03:56:49;8.00;;;3.60;;
66587;SDS011;53446;50.076;8.198;2023-04-06T03:58:50;8.53;;;3.67;;
66587;SDS011;53446;50.076;8.198;2023-04-06T04:00:51;8.77;;;3.40;;
66587;SDS011;53446;50.076;8.198;2023-04-06T04:02:51;9.00;;;3.30;;
66587;SDS011;53446;50.076;8.198;2023-04-06T04:04:51;6.17;;;2.80;;
66587;SDS011;53446;50.076;8.198;2023-04-06T04:06:52;6.63;;;3.27;;
66587;SDS011;53446;50.076;8.198;2023-04-06T04:08:52;8.77;;;3.80;;
66587;SDS011;53446;50.076;8.198;2023-04-06T04:10:52;8.57;;;4.20;;
66587;SDS011;53446;50.076;8.198;2023-04-06T04:12:52;9.07;;;4.00;;
66587;SDS011;53446;50.076;8.198;2023-04-06T04:14:53;11.40;;;4.70;;
66587;SDS011;53446;50.076;8.198;2023-04-06T04:16:53;8.57;;;3.97;;
66587;SDS011;53446;50.076;8.198;2023-04-06T04:18:53;9.77;;;3.70;;
66587;SDS011;53446;50.076;8.198;2023-04-06T04:20:54;8.57;;;3.73;;
66587;SDS011;53446;50.076;8.198;2023-04-06T04:22:54;6.27;;;3.20;;
66587;SDS011;53446;50.076;8.198;2023-04-06T04:24:54;10.70;;;3.90;;
66587;SDS011;53446;50.076;8.198;2023-04-06T04:26:55;9.52;;;3.50;;
66587;SDS011;53446;50.076;8.198;2023-04-06T04:28:55;6.90;;;3.30;;
66587;SDS011;53446;50.076;8.198;2023-04-06T04:30:56;11.30;;;4.07;;
66587;SDS011;53446;50.076;8.198;2023-04-06T04:32:56;7.03;;;3.13;;
66587;SDS011;53446;50.076;8.198;2023-04-06T04:34:56;8.40;;;3.47;;
66587;SDS011;53446;50.076;8.198;2023-04-06T04:36:57;8.10;;;3.88;;
66587;SDS011;53446;50.076;8.198;2023-04-06T04:38:57;12.00;;;4.83;;
66587;SDS011;53446;50.076;8.198;2023-04-06T04:40:57;23.50;;;11.33;;
66587;SDS011;53446;50.076;8.198;2023-04-06T04:42:57;12.17;;;5.13;;
66587;SDS011;53446;50.076;8.198;2023-04-06T04:44:58;15.43;;;6.10;;
66587;SDS011;53446;50.076;8.198;2023-04-06T04:46:58;12.73;;;5.70;;
66587;SDS011;53446;50.076;8.198;2023-04-06T04:48:58;9.90;;;4.90;;
66587;SDS011;53446;50.076;8.198;2023-04-06T04:50:59;9.55;;;4.32;;
66587;SDS011;53446;50.076;8.198;2023-04-06T04:53:00;8.90;;;4.53;;
66587;SDS011;53446;50.076;8.198;2023-04-06T04:55:01;14.83;;;6.13;;
66587;SDS011;53446;50.076;8.198;2023-04-06T04:57:01;13.75;;;5.70;;
66587;SDS011;53446;50.076;8.198;2023-04-06T04:59:01;11.97;;;5.10;;
66587;SDS011;53446;50.076;8.198;2023-04-06T05:01:01;10.27;;;4.70;;
66587;SDS011;53446;50.076;8.198;2023-04-06T05:03:02;12.55;;;5.30;;
66587;SDS011;53446;50.076;8.198;2023-04-06T05:05:04;9.68;;;4.82;;
66587;SDS011;53446;50.076;8.198;2023-04-06T05:07:05;10.68;;;4.40;;
66587;SDS011;53446;50.076;8.198;2023-04-06T05:09:06;9.32;;;5.05;;
66587;SDS011;53446;50.076;8.198;2023-04-06T05:11:06;9.43;;;4.10;;
66587;SDS011;53446;50.076;8.198;2023-04-06T05:13:07;11.07;;;4.80;;
66587;SDS011;53446;50.076;8.198;2023-04-06T05:15:07;18.90;;;8.40;;
66587;SDS011;53446;50.076;8.198;2023-04-06T05:17:08;16.67;;;8.05;;
66587;SDS011;53446;50.076;8.198;2023-04-06T05:19:09;13.00;;;6.60;;
66587;SDS011;53446;50.076;8.198;2023-04-06T05:21:11;10.23;;;5.35;;
66587;SDS011;53446;50.076;8.198;2023-04-06T05:23:11;10.33;;;5.00;;
66587;SDS011;53446;50.076;8.198;2023-04-06T05:25:12;12.63;;;5.17;;
66587;SDS011;53446;50.076;8.198;2023-04-06T05:27:13;10.45;;;5.43;;
66587;SDS011;53446;50.076;8.198;2023-04-06T05:29:13;9.23;;;4.60;;
66587;SDS011;53446;50.076;8.198;2023-04-06T05:31:14;10.93;;;5.70;;
66587;SDS011;53446;50.076;8.198;2023-04-06T05:33:16;14.55;;;8.18;;
66587;SDS011;53446;50.076;8.198;2023-04-06T05:35:16;30.53;;;19.90;;
66587;SDS011;53446;50.076;8.198;2023-04-06T05:37:17;18.20;;;10.73;;
66587;SDS011;53446;50.076;8.198;2023-04-06T05:39:17;15.23;;;9.00;;
66587;SDS011;53446;50.076;8.198;2023-04-06T05:41:17;13.07;;;6.63;;
66587;SDS011;53446;50.076;8.198;2023-04-06T05:43:18;11.53;;;5.90;;
66587;SDS011;53446;50.076;8.198;2023-04-06T05:45:18;8.93;;;4.77;;
66587;SDS011;53446;50.076;8.198;2023-04-06T05:47:19;9.27;;;4.88;;
66587;SDS011;53446;50.076;8.198;2023-04-06T05:49:19;9.90;;;5.53;;
66587;SDS011;53446;50.076;8.198;2023-04-06T05:51:19;12.40;;;6.00;;
66587;SDS011;53446;50.076;8.198;2023-04-06T05:53:20;12.97;;;7.10;;
66587;SDS011;53446;50.076;8.198;2023-04-06T05:55:21;14.38;;;7.57;;
66587;SDS011;53446;50.076;8.198;2023-04-06T05:57:21;13.43;;;7.13;;
66587;SDS011;53446;50.076;8.198;2023-04-06T05:59:22;13.90;;;7.73;;
66587;SDS011;53446;50.076;8.198;2023-04-06T06:01:23;14.88;;;7.85;;
66587;SDS011;53446;50.076;8.198;2023-04-06T06:03:23;14.30;;;7.77;;
66587;SDS011;53446;50.076;8.198;2023-04-06T06:05:24;29.48;;;10.25;;
66587;SDS011;53446;50.076;8.198;2023-04-06T06:07:24;21.30;;;8.93;;
66587;SDS011;53446;50.076;8.198;2023-04-06T06:09:24;15.80;;;7.60;;
66587;SDS011;53446;50.076;8.198;2023-04-06T06:11:25;17.30;;;7.47;;
66587;SDS011;53446;50.076;8.198;2023-04-06T06:13:25;13.43;;;7.07;;
66587;SDS011;53446;50.076;8.198;2023-04-06T06:15:25;14.20;;;7.43;;
66587;SDS011;53446;50.076;8.198;2023-04-06T06:17:26;16.27;;;7.37;;
66587;SDS011;53446;50.076;8.198;2023-04-06T06:19:26;13.57;;;7.00;;
66587;SDS011;53446;50.076;8.198;2023-04-06T06:21:26;13.45;;;6.43;;
66587;SDS011;53446;50.076;8.198;2023-04-06T06:23:27;11.93;;;5.95;;
66587;SDS011;53446;50.076;8.198;2023-04-06T06:25:27;16.57;;;7.93;;
66587;SDS011;53446;50.076;8.198;2023-04-06T06:27:27;23.37;;;9.10;;
66587;SDS011;53446;50.076;8.198;2023-04-06T06:29:27;19.50;;;8.77;;
66587;SDS011;53446;50.076;8.198;2023-04-06T06:31:28;17.03;;;8.10;;
66587;SDS011;53446;50.076;8.198;2023-04-06T06:33:28;16.50;;;7.10;;
66587;SDS011;53446;50.076;8.198;2023-04-06T06:35:28;15.10;;;7.27;;
66587;SDS011;53446;50.076;8.198;2023-04-06T06:37:29;12.55;;;6.75;;
66587;SDS011;53446;50.076;8.198;2023-04-06T06:39:29;13.98;;;7.22;;
66587;SDS011;53446;50.076;8.198;2023-04-06T06:41:30;13.90;;;7.00;;
66587;SDS011;53446;50.076;8.198;2023-04-06T06:43:30;12.00;;;6.77;;
66587;SDS011;53446;50.076;8.198;2023-04-06T06:45:30;15.30;;;7.50;;
66587;SDS011;53446;50.076;8.198;2023-04-06T06:47:31;14.85;;;6.78;;
66587;SDS011;53446;50.076;8.198;2023-04-06T06:49:31;16.33;;;6.20;;
66587;SDS011;53446;50.076;8.198;2023-04-06T06:51:31;14.87;;;6.70;;
66587;SDS011;53446;50.076;8.198;2023-04-06T06:53:32;17.23;;;6.10;;
66587;SDS011;53446;50.076;8.198;2023-04-06T06:55:32;20.80;;;9.17;;
66587;SDS011;53446;50.076;8.198;2023-04-06T06:57:32;16.33;;;6.53;;
66587;SDS011;53446;50.076;8.198;2023-04-06T06:59:32;13.23;;;6.40;;
66587;SDS011;53446;50.076;8.198;2023-04-06T07:01:33;15.13;;;7.17;;
66587;SDS011;53446;50.076;8.198;2023-04-06T07:03:34;14.13;;;7.40;;
66587;SDS011;53446;50.076;8.198;2023-04-06T07:05:34;13.97;;;7.87;;
66587;SDS011;53446;50.076;8.198;2023-04-06T07:07:35;15.65;;;7.70;;
66587;SDS011;53446;50.076;8.198;2023-04-06T07:09:35;14.43;;;7.27;;
66587;SDS011;53446;50.076;8.198;2023-04-06T07:11:35;14.17;;;7.40;;
66587;SDS011;53446;50.076;8.198;2023-04-06T07:13:36;14.60;;;6.83;;
66587;SDS011;53446;50.076;8.198;2023-04-06T07:15:36;14.10;;;6.57;;
66587;SDS011;53446;50.076;8.198;2023-04-06T07:17:37;13.53;;;7.23;;
66587;SDS011;53446;50.076;8.198;2023-04-06T07:19:37;17.65;;;7.35;;
66587;SDS011;53446;50.076;8.198;2023-04-06T07:21:37;16.20;;;7.03;;
66587;SDS011;53446;50.076;8.198;2023-04-06T07:23:37;13.93;;;6.60;;
66587;SDS011;53446;50.076;8.198;2023-04-06T07:25:38;15.27;;;6.87;;
66587;SDS011;53446;50.076;8.198;2023-04-06T07:27:38;12.30;;;6.50;;
66587;SDS011;53446;50.076;8.198;2023-04-06T07:29:38;17.03;;;7.43;;
66587;SDS011;53446;50.076;8.198;2023-04-06T07:31:39;14.80;;;6.73;;
66587;SDS011;53446;50.076;8.198;2023-04-06T07:33:39;11.27;;;6.03;;
66587;SDS011;53446;50.076;8.198;2023-04-06T07:35:40;13.80;;;7.18;;
66587;SDS011;53446;50.076;8.198;2023-04-06T07:37:40;19.77;;;7.50;;
66587;SDS011;53446;50.076;8.198;2023-04-06T07:39:42;13.32;;;7.15;;
66587;SDS011;53446;50.076;8.198;2023-04-06T07:41:42;13.50;;;6.90;;
66587;SDS011;53446;50.076;8.198;2023-04-06T07:43:42;11.97;;;6.23;;
66587;SDS011;53446;50.076;8.198;2023-04-06T07:45:43;16.40;;;7.33;;
66587;SDS011;53446;50.076;8.198;2023-04-06T07:47:43;13.82;;;6.97;;
66587;SDS011;53446;50.076;8.198;2023-04-06T07:49:43;15.23;;;7.43;;
66587;SDS011;53446;50.076;8.198;2023-04-06T07:51:45;14.80;;;7.88;;
66587;SDS011;53446;50.076;8.198;2023-04-06T07:53:45;14.23;;;7.33;;
66587;SDS011;53446;50.076;8.198;2023-04-06T07:55:45;13.90;;;7.43;;
66587;SDS011;53446;50.076;8.198;2023-04-06T07:57:46;12.30;;;7.10;;
66587;SDS011;53446;50.076;8.198;2023-04-06T07:59:46;14.27;;;7.67;;
66587;SDS011;53446;50.076;8.198;2023-04-06T08:01:46;13.07;;;6.63;;
66587;SDS011;53446;50.076;8.198;2023-04-06T08:03:47;15.13;;;8.32;;
66587;SDS011;53446;50.076;8.198;2023-04-06T08:05:47;14.77;;;7.85;;
66587;SDS011;53446;50.076;8.198;2023-04-06T08:07:47;19.50;;;7.60;;
66587;SDS011;53446;50.076;8.198;2023-04-06T08:09:48;17.03;;;8.07;;
66587;SDS011;53446;50.076;8.198;2023-04-06T08:11:48;15.93;;;7.50;;
66587;SDS011;53446;50.076;8.198;2023-04-06T08:13:48;17.40;;;8.03;;
66587;SDS011;53446;50.076;8.198;2023-04-06T08:15:49;16.20;;;8.05;;
66587;SDS011;53446;50.076;8.198;2023-04-06T08:17:49;14.70;;;7.77;;
66587;SDS011;53446;50.076;8.198;2023-04-06T08:19:50;17.80;;;7.30;;
66587;SDS011;53446;50.076;8.198;2023-04-06T08:21:50;14.27;;;6.70;;
66587;SDS011;53446;50.076;8.198;2023-04-06T08:23:51;14.13;;;8.30;;
66587;SDS011;53446;50.076;8.198;2023-04-06T08:25:51;17.57;;;8.00;;
66587;SDS011;53446;50.076;8.198;2023-04-06T08:27:54;16.55;;;9.13;;
66587;SDS011;53446;50.076;8.198;2023-04-06T08:29:54;18.73;;;7.67;;
66587;SDS011;53446;50.076;8.198;2023-04-06T08:31:54;18.60;;;8.90;;
66587;SDS011;53446;50.076;8.198;2023-04-06T08:33:55;14.40;;;8.57;;
66587;SDS011;53446;50.076;8.198;2023-04-06T08:35:56;13.32;;;7.75;;
66587;SDS011;53446;50.076;8.198;2023-04-06T08:37:56;14.73;;;7.67;;
66587;SDS011;53446;50.076;8.198;2023-04-06T08:39:57;18.33;;;7.63;;
66587;SDS011;53446;50.076;8.198;2023-04-06T08:41:57;21.60;;;8.10;;
66587;SDS011;53446;50.076;8.198;2023-04-06T08:44:00;20.83;;;8.32;;
66587;SDS011;53446;50.076;8.198;2023-04-06T08:46:01;73.30;;;35.72;;
66587;SDS011;53446;50.076;8.198;2023-04-06T08:48:02;81.40;;;36.20;;
66587;SDS011;53446;50.076;8.198;2023-04-06T08:50:06;36.13;;;15.35;;
66587;SDS011;53446;50.076;8.198;2023-04-06T08:52:07;131.00;;;54.73;;
66587;SDS011;53446;50.076;8.198;2023-04-06T08:54:08;28.33;;;12.93;;
66587;SDS011;53446;50.076;8.198;2023-04-06T08:56:09;16.95;;;8.88;;
66587;SDS011;53446;50.076;8.198;2023-04-06T08:58:10;15.67;;;7.73;;
66587;SDS011;53446;50.076;8.198;2023-04-06T09:00:10;18.15;;;8.57;;
66587;SDS011;53446;50.076;8.198;2023-04-06T09:02:13;22.15;;;8.55;;
66587;SDS011;53446;50.076;8.198;2023-04-06T09:04:17;16.55;;;9.07;;
66587;SDS011;53446;50.076;8.198;2023-04-06T09:06:17;16.83;;;8.30;;
66587;SDS011;53446;50.076;8.198;2023-04-06T09:08:18;39.42;;;16.85;;
66587;SDS011;53446;50.076;8.198;2023-04-06T09:10:19;15.77;;;7.43;;
66587;SDS011;53446;50.076;8.198;2023-04-06T09:12:24;13.57;;;7.65;;
66587;SDS011;53446;50.076;8.198;2023-04-06T09:14:37;14.18;;;8.00;;
66587;SDS011;53446;50.076;8.198;2023-04-06T09:16:44;18.38;;;8.55;;
66587;SDS011;53446;50.076;8.198;2023-04-06T09:18:45;16.80;;;8.45;;
66587;SDS011;53446;50.076;8.198;2023-04-06T09:20:56;16.97;;;8.53;;
66587;SDS011;53446;50.076;8.198;2023-04-06T09:22:57;14.15;;;8.52;;
66587;SDS011;53446;50.076;8.198;2023-04-06T09:24:57;14.50;;;8.70;;
66587;SDS011;53446;50.076;8.198;2023-04-06T09:26:57;17.67;;;9.07;;
66587;SDS011;53446;50.076;8.198;2023-04-06T09:28:58;14.83;;;8.37;;
66587;SDS011;53446;50.076;8.198;2023-04-06T09:31:00;15.85;;;10.02;;
66587;SDS011;53446;50.076;8.198;2023-04-06T09:33:01;19.93;;;9.33;;
66587;SDS011;53446;50.076;8.198;2023-04-06T09:35:07;31.27;;;14.93;;
66587;SDS011;53446;50.076;8.198;2023-04-06T09:37:12;35.30;;;17.77;;
66587;SDS011;53446;50.076;8.198;2023-04-06T09:39:19;18.30;;;9.98;;
66587;SDS011;53446;50.076;8.198;2023-04-06T09:41:24;21.83;;;10.90;;
66587;SDS011;53446;50.076;8.198;2023-04-06T09:43:26;16.75;;;9.07;;
66587;SDS011;53446;50.076;8.198;2023-04-06T09:45:27;23.13;;;11.47;;
66587;SDS011;53446;50.076;8.198;2023-04-06T09:47:30;23.98;;;13.30;;
66587;SDS011;53446;50.076;8.198;2023-04-06T09:49:31;17.50;;;9.40;;
66587;SDS011;53446;50.076;8.198;2023-04-06T09:51:44;16.70;;;8.87;;
66587;SDS011;53446;50.076;8.198;2023-04-06T09:53:48;16.15;;;9.15;;
66587;SDS011;53446;50.076;8.198;2023-04-06T09:55:51;17.20;;;8.57;;
66587;SDS011;53446;50.076;8.198;2023-04-06T09:58:05;16.25;;;9.23;;
66587;SDS011;53446;50.076;8.198;2023-04-06T10:00:07;17.08;;;9.07;;
66587;SDS011;53446;50.076;8.198;2023-04-06T10:02:14;25.90;;;12.33;;
66587;SDS011;53446;50.076;8.198;2023-04-06T10:04:21;18.23;;;10.50;;
66587;SDS011;53446;50.076;8.198;2023-04-06T10:06:42;19.05;;;10.45;;
66587;SDS011;53446;50.076;8.198;2023-04-06T10:08:45;19.02;;;10.93;;
66587;SDS011;53446;50.076;8.198;2023-04-06T10:10:46;18.90;;;9.70;;
66587;SDS011;53446;50.076;8.198;2023-04-06T10:12:47;16.37;;;9.00;;
66587;SDS011;53446;50.076;8.198;2023-04-06T10:14:47;17.45;;;9.82;;
66587;SDS011;53446;50.076;8.198;2023-04-06T10:16:49;19.27;;;10.20;;
66587;SDS011;53446;50.076;8.198;2023-04-06T10:18:52;22.20;;;9.93;;
66587;SDS011;53446;50.076;8.198;2023-04-06T10:20:56;17.15;;;9.82;;
66587;SDS011;53446;50.076;8.198;2023-04-06T10:23:05;30.30;;;20.70;;
66587;SDS011;53446;50.076;8.198;2023-04-06T10:25:08;20.30;;;12.27;;
66587;SDS011;53446;50.076;8.198;2023-04-06T10:27:09;14.53;;;9.00;;
66587;SDS011;53446;50.076;8.198;2023-04-06T10:29:11;15.60;;;8.95;;
66587;SDS011;53446;50.076;8.198;2023-04-06T10:31:11;14.73;;;9.03;;
66587;SDS011;53446;50.076;8.198;2023-04-06T10:33:12;15.32;;;8.68;;
66587;SDS011;53446;50.076;8.198;2023-04-06T10:35:13;17.08;;;9.32;;
66587;SDS011;53446;50.076;8.198;2023-04-06T10:37:16;16.15;;;8.77;;
66587;SDS011;53446;50.076;8.198;2023-04-06T10:39:24;14.57;;;8.30;;
66587;SDS011;53446;50.076;8.198;2023-04-06T10:41:35;14.57;;;8.98;;
66587;SDS011;53446;50.076;8.198;2023-04-06T10:43:40;16.27;;;9.35;;
66587;SDS011;53446;50.076;8.198;2023-04-06T10:45:41;15.48;;;9.52;;
66587;SDS011;53446;50.076;8.198;2023-04-06T10:47:43;16.02;;;9.43;;
66587;SDS011;53446;50.076;8.198;2023-04-06T10:49:43;19.57;;;11.47;;
66587;SDS011;53446;50.076;8.198;2023-04-06T10:51:43;15.67;;;9.23;;
66587;SDS011;53446;50.076;8.198;2023-04-06T10:53:45;13.90;;;8.80;;
66587;SDS011;53446;50.076;8.198;2023-04-06T10:55:46;14.13;;;9.05;;
66587;SDS011;53446;50.076;8.198;2023-04-06T10:57:47;16.70;;;11.00;;
66587;SDS011;53446;50.076;8.198;2023-04-06T10:59:47;17.37;;;9.83;;
66587;SDS011;53446;50.076;8.198;2023-04-06T11:01:48;15.87;;;9.90;;
66587;SDS011;53446;50.076;8.198;2023-04-06T11:03:49;13.47;;;8.93;;
66587;SDS011;53446;50.076;8.198;2023-04-06T11:05:52;15.00;;;8.55;;
66587;SDS011;53446;50.076;8.198;2023-04-06T11:07:52;15.50;;;8.67;;
66587;SDS011;53446;50.076;8.198;2023-04-06T11:09:52;22.40;;;14.23;;
66587;SDS011;53446;50.076;8.198;2023-04-06T11:11:53;15.10;;;8.95;;
66587;SDS011;53446;50.076;8.198;2023-04-06T11:13:55;18.92;;;9.75;;
66587;SDS011;53446;50.076;8.198;2023-04-06T11:15:56;17.58;;;9.90;;
66587;SDS011;53446;50.076;8.198;2023-04-06T11:17:56;18.05;;;9.38;;
66587;SDS011;53446;50.076;8.198;2023-04-06T11:19:57;16.20;;;8.40;;
66587;SDS011;53446;50.076;8.198;2023-04-06T11:22:05;16.05;;;9.90;;
66587;SDS011;53446;50.076;8.198;2023-04-06T11:26:13;16.58;;;9.23;;
66587;SDS011;53446;50.076;8.198;2023-04-06T11:28:14;17.42;;;9.60;;
66587;SDS011;53446;50.076;8.198;2023-04-06T11:30:14;15.77;;;9.07;;
66587;SDS011;53446;50.076;8.198;2023-04-06T11:32:21;16.97;;;11.70;;
66587;SDS011;53446;50.076;8.198;2023-04-06T11:34:22;19.55;;;11.48;;
66587;SDS011;53446;50.076;8.198;2023-04-06T11:36:23;16.05;;;9.45;;
66587;SDS011;53446;50.076;8.198;2023-04-06T11:38:27;16.33;;;9.85;;
66587;SDS011;53446;50.076;8.198;2023-04-06T11:40:27;15.97;;;9.23;;
66587;SDS011;53446;50.076;8.198;2023-04-06T11:42:29;18.05;;;9.48;;
66587;SDS011;53446;50.076;8.198;2023-04-06T11:44:36;19.47;;;9.57;;
66587;SDS011;53446;50.076;8.198;2023-04-06T11:46:51;14.77;;;9.38;;
66587;SDS011;53446;50.076;8.198;2023-04-06T11:48:52;16.55;;;9.70;;
66587;SDS011;53446;50.076;8.198;2023-04-06T11:50:55;15.07;;;9.83;;
66587;SDS011;53446;50.076;8.198;2023-04-06T11:53:01;17.25;;;9.27;;
66587;SDS011;53446;50.076;8.198;2023-04-06T11:55:13;16.15;;;9.85;;
66587;SDS011;53446;50.076;8.198;2023-04-06T11:57:18;17.00;;;10.13;;
66587;SDS011;53446;50.076;8.198;2023-04-06T11:59:21;16.45;;;10.10;;
66587;SDS011;53446;50.076;8.198;2023-04-06T12:01:23;15.93;;;9.15;;
66587;SDS011;53446;50.076;8.198;2023-04-06T12:03:23;16.58;;;9.00;;
66587;SDS011;53446;50.076;8.198;2023-04-06T12:05:24;15.90;;;9.43;;